createdAt,value
2022-08-15T00:01:44.234Z,8.48
2022-08-15T00:04:33.462Z,9.48
2022-08-15T00:06:58.805Z,9.27
2022-08-15T00:09:54.750Z,9.90
2022-08-15T00:12:33.783Z,10.23
2022-08-15T00:14:59.639Z,9.02
2022-08-15T00:17:46.289Z,8.82
2022-08-15T00:20:20.987Z,9.18
2022-08-15T00:23:00.630Z,9.38
2022-08-15T00:25:30.008Z,8.73
2022-08-15T00:27:56.958Z,9.30
2022-08-15T00:30:25.983Z,8.95
2022-08-15T00:33:18.657Z,9.20
2022-08-15T00:35:55.821Z,10.45
2022-08-15T00:38:39.641Z,9.82
2022-08-15T00:41:37.355Z,10.65
2022-08-15T00:44:09.292Z,9.57
2022-08-15T00:46:41.451Z,9.75
2022-08-15T00:49:12.321Z,9.13
2022-08-15T00:51:56.282Z,10.88
2022-08-15T00:54:56.971Z,9.23
2022-08-15T00:58:00.875Z,9.20
2022-08-15T01:00:33.380Z,9.30
2022-08-15T01:03:04.621Z,9.55
2022-08-15T01:05:33.619Z,8.70
2022-08-15T01:08:01.924Z,8.73
2022-08-15T01:10:36.048Z,8.55
2022-08-15T01:15:46.042Z,8.75
2022-08-15T01:18:22.933Z,9.25
2022-08-15T01:21:08.254Z,8.98
2022-08-15T01:23:55.845Z,8.98
2022-08-15T01:26:41.918Z,8.50
2022-08-15T01:29:17.643Z,9.05
2022-08-15T01:31:48.811Z,8.70
2022-08-15T01:34:18.186Z,8.70
2022-08-15T01:36:47.582Z,8.95
2022-08-15T01:39:34.365Z,8.88
2022-08-15T01:42:17.202Z,9.00
2022-08-15T01:44:50.489Z,9.90
2022-08-15T01:47:36.284Z,9.52
2022-08-15T01:50:12.199Z,9.65
2022-08-15T01:52:59.562Z,10.55
2022-08-15T01:56:01.805Z,9.50
2022-08-15T01:58:48.884Z,9.57
2022-08-15T02:01:21.940Z,8.45
2022-08-15T02:04:02.974Z,9.73
2022-08-15T02:06:36.735Z,9.63
2022-08-15T02:09:18.104Z,9.23
2022-08-15T02:12:01.027Z,9.27
2022-08-15T02:14:38.950Z,9.80
2022-08-15T02:17:07.351Z,10.45
2022-08-15T02:19:44.891Z,10.15
2022-08-15T02:22:26.387Z,10.50
2022-08-15T02:24:55.685Z,9.20
2022-08-15T02:27:24.035Z,9.73
2022-08-15T02:29:53.440Z,10.30
2022-08-15T02:32:27.025Z,10.63
2022-08-15T02:34:59.456Z,9.65
2022-08-15T02:37:26.565Z,10.10
2022-08-15T02:39:57.365Z,10.57
2022-08-15T02:42:26.036Z,9.93
2022-08-15T02:44:53.368Z,10.38
2022-08-15T02:47:23.840Z,11.18
2022-08-15T02:49:53.474Z,10.55
2022-08-15T02:52:21.872Z,10.43
2022-08-15T02:55:01.755Z,10.93
2022-08-15T02:57:59.351Z,11.43
2022-08-15T03:00:20.594Z,10.98
2022-08-15T03:02:57.980Z,11.05
2022-08-15T03:05:28.792Z,11.70
2022-08-15T03:07:55.912Z,11.90
2022-08-15T03:10:29.318Z,12.10
2022-08-15T03:13:06.583Z,12.50
2022-08-15T03:15:56.917Z,12.15
2022-08-15T03:18:31.138Z,12.73
2022-08-15T03:23:41.283Z,12.30
2022-08-15T03:26:26.002Z,12.02
2022-08-15T03:29:05.103Z,12.35
2022-08-15T03:31:44.775Z,12.75
2022-08-15T03:34:15.444Z,12.48
2022-08-15T03:36:51.949Z,12.30
2022-08-15T03:39:19.966Z,12.63
2022-08-15T03:41:54.914Z,13.30
2022-08-15T03:44:27.267Z,12.60
2022-08-15T03:46:55.896Z,12.88
2022-08-15T03:50:22.791Z,12.73
2022-08-15T03:52:10.543Z,12.65
2022-08-15T03:54:38.864Z,11.50
2022-08-15T03:57:09.550Z,12.35
2022-08-15T03:59:39.829Z,12.10
2022-08-15T04:02:30.505Z,11.50
2022-08-15T04:04:59.763Z,11.18
2022-08-15T04:07:39.908Z,11.35
2022-08-15T04:10:36.723Z,10.88
2022-08-15T04:12:59.893Z,12.05
2022-08-15T04:15:30.801Z,11.23
2022-08-15T04:18:00.560Z,10.85
2022-08-15T04:20:32.081Z,12.07
2022-08-15T04:23:02.337Z,12.00
2022-08-15T04:25:54.228Z,11.43
2022-08-15T04:28:28.358Z,10.55
2022-08-15T04:31:20.024Z,10.80
2022-08-15T04:34:44.635Z,10.73
2022-08-15T04:36:34.847Z,9.85
2022-08-15T04:39:03.530Z,10.38
2022-08-15T04:41:35.636Z,10.20
2022-08-15T04:44:04.278Z,9.70
2022-08-15T04:46:31.204Z,9.43
2022-08-15T04:48:59.651Z,10.10
2022-08-15T04:51:34.523Z,10.15
2022-08-15T04:54:03.998Z,9.75
2022-08-15T04:56:50.956Z,10.70
2022-08-15T04:59:29.908Z,9.73
2022-08-15T05:02:53.208Z,8.65
2022-08-15T05:04:55.628Z,9.63
2022-08-15T05:07:27.587Z,9.80
2022-08-15T05:10:03.933Z,8.98
2022-08-15T05:12:46.721Z,10.23
2022-08-15T05:15:22.213Z,10.63
2022-08-15T05:17:57.844Z,11.20
2022-08-15T05:20:25.686Z,11.95
2022-08-15T05:23:09.181Z,11.20
2022-08-15T05:25:41.851Z,11.05
2022-08-15T05:28:29.818Z,11.10
2022-08-15T05:31:04.405Z,11.23
2022-08-15T05:33:57.260Z,12.18
2022-08-15T05:36:27.864Z,12.40
2022-08-15T05:39:03.602Z,11.23
2022-08-15T05:44:39.635Z,11.15
2022-08-15T05:47:20.926Z,11.00
2022-08-15T05:49:56.921Z,10.32
2022-08-15T05:52:47.925Z,10.88
2022-08-15T05:55:41.356Z,10.40
2022-08-15T05:58:43.252Z,10.48
2022-08-15T06:01:19.828Z,9.82
2022-08-15T06:04:30.147Z,9.98
2022-08-15T06:07:01.624Z,9.73
2022-08-15T06:09:31.944Z,10.32
2022-08-15T06:12:25.483Z,11.32
2022-08-15T06:15:03.502Z,10.77
2022-08-15T06:17:39.217Z,9.90
2022-08-15T06:20:29.206Z,9.70
2022-08-15T06:23:13.123Z,10.18
2022-08-15T06:26:20.601Z,10.60
2022-08-15T06:29:12.177Z,10.30
2022-08-15T06:31:45.618Z,10.30
2022-08-15T06:34:54.881Z,9.75
2022-08-15T06:37:32.071Z,10.75
2022-08-15T06:40:27.829Z,9.85
2022-08-15T06:42:56.834Z,9.85
2022-08-15T06:45:49.591Z,10.75
2022-08-15T06:48:54.769Z,10.18
2022-08-15T06:51:12.519Z,10.50
2022-08-15T06:53:43.408Z,8.82
2022-08-15T06:56:34.846Z,10.45
2022-08-15T06:59:10.300Z,10.48
2022-08-15T07:02:12.212Z,9.90
2022-08-15T07:05:09.872Z,9.57
2022-08-15T07:07:48.903Z,9.45
2022-08-15T07:10:49.600Z,10.85
2022-08-15T07:13:26.180Z,10.18
2022-08-15T07:16:08.650Z,9.38
2022-08-15T07:18:54.238Z,9.07
2022-08-15T07:21:23.747Z,9.25
2022-08-15T07:24:35.593Z,10.10
2022-08-15T07:27:06.850Z,10.07
2022-08-15T07:29:40.470Z,9.73
2022-08-15T07:32:32.790Z,10.13
2022-08-15T07:35:15.345Z,8.85
2022-08-15T07:38:21.168Z,10.45
2022-08-15T07:40:56.633Z,10.38
2022-08-15T07:43:33.712Z,10.13
2022-08-15T07:46:23.438Z,10.07
2022-08-15T07:49:19.449Z,9.88
2022-08-15T07:52:02.051Z,9.75
2022-08-15T07:54:50.779Z,10.48
2022-08-15T08:00:37.272Z,9.80
2022-08-15T08:03:19.309Z,10.35
2022-08-15T08:06:34.589Z,10.23
2022-08-15T08:09:08.466Z,10.07
2022-08-15T08:11:46.581Z,10.52
2022-08-15T08:14:39.970Z,9.40
2022-08-15T08:17:17.033Z,10.57
2022-08-15T08:23:37.580Z,10.40
2022-08-15T08:26:30.558Z,10.18
2022-08-15T08:29:13.653Z,10.30
2022-08-15T08:35:52.746Z,10.32
2022-08-15T08:39:05.871Z,10.48
2022-08-15T08:41:56.135Z,10.30
2022-08-15T08:45:00.289Z,10.18
2022-08-15T08:48:01.035Z,10.88
2022-08-15T08:50:46.133Z,10.20
2022-08-15T08:53:37.514Z,10.52
2022-08-15T08:56:33.349Z,10.98
2022-08-15T08:59:52.557Z,10.38
2022-08-15T09:02:29.526Z,9.95
2022-08-15T09:05:47.123Z,9.90
2022-08-15T09:08:31.484Z,10.60
2022-08-15T09:11:09.466Z,9.63
2022-08-15T09:13:44.455Z,10.02
2022-08-15T09:16:32.311Z,10.35
2022-08-15T09:19:05.838Z,10.23
2022-08-15T09:21:43.253Z,10.80
2022-08-15T09:24:37.606Z,10.98
2022-08-15T09:27:17.535Z,10.50
2022-08-15T09:29:56.371Z,11.18
2022-08-15T09:32:32.577Z,10.93
2022-08-15T09:35:46.812Z,10.57
2022-08-15T09:38:28.147Z,10.35
2022-08-15T09:41:15.346Z,10.15
2022-08-15T09:47:58.899Z,10.07
2022-08-15T09:50:43.721Z,10.32
2022-08-15T09:53:47.851Z,10.15
2022-08-15T09:56:27.473Z,10.43
2022-08-15T09:59:10.248Z,10.30
2022-08-15T10:01:55.899Z,10.32
2022-08-15T10:05:02.285Z,10.48
2022-08-15T10:07:55.232Z,10.48
2022-08-15T10:10:37.394Z,10.60
2022-08-15T10:17:05.809Z,10.48
2022-08-15T10:20:00.576Z,10.13
2022-08-15T10:22:45.477Z,9.88
2022-08-15T10:25:39.776Z,10.05
2022-08-15T10:28:38.148Z,10.55
2022-08-15T10:31:01.497Z,11.25
2022-08-15T10:33:36.952Z,10.95
2022-08-15T10:36:30.027Z,10.10
2022-08-15T10:39:28.742Z,11.13
2022-08-15T10:42:24.962Z,10.25
2022-08-15T10:45:02.800Z,10.25
2022-08-15T10:47:39.042Z,10.30
2022-08-15T10:50:31.584Z,9.50
2022-08-15T10:53:29.006Z,10.02
2022-08-15T10:57:04.949Z,10.48
2022-08-15T11:03:10.593Z,10.00
2022-08-15T11:05:45.128Z,9.80
2022-08-15T11:08:18.860Z,10.20
2022-08-15T11:10:47.205Z,12.43
2022-08-15T11:13:17.243Z,14.32
2022-08-15T11:15:57.205Z,15.10
2022-08-15T11:18:35.813Z,15.93
2022-08-15T11:21:43.025Z,16.25
2022-08-15T11:24:11.697Z,15.07
2022-08-15T11:26:42.027Z,16.00
2022-08-15T11:29:23.412Z,17.15
2022-08-15T11:32:00.967Z,18.77
2022-08-15T11:38:24.973Z,16.17
2022-08-15T11:40:55.192Z,14.80
2022-08-15T11:43:24.272Z,15.18
2022-08-15T11:45:52.572Z,15.13
2022-08-15T11:48:35.575Z,14.65
2022-08-15T11:52:40.806Z,15.25
2022-08-15T11:54:37.346Z,13.35
2022-08-15T11:57:17.338Z,14.85
2022-08-15T12:00:03.205Z,15.30
2022-08-15T12:05:44.296Z,14.80
2022-08-15T12:08:29.479Z,13.82
2022-08-15T12:11:35.227Z,14.48
2022-08-15T12:13:09.336Z,13.60
2022-08-15T12:14:24.919Z,11.90
2022-08-15T12:17:12.323Z,12.07
2022-08-15T12:20:29.130Z,11.68
2022-08-15T12:22:54.820Z,12.48
2022-08-15T12:32:26.195Z,11.48
2022-08-15T12:34:59.507Z,11.02
2022-08-15T12:40:53.659Z,11.10
2022-08-15T12:43:00.129Z,11.40
2022-08-15T12:45:36.378Z,10.23
2022-08-15T12:48:22.719Z,11.10
2022-08-15T12:50:55.995Z,10.93
2022-08-15T12:53:23.578Z,9.55
2022-08-15T12:55:55.487Z,10.85
2022-08-15T12:58:23.631Z,11.45
2022-08-15T13:01:03.634Z,10.52
2022-08-15T13:04:01.087Z,10.60
2022-08-15T13:06:55.420Z,10.48
2022-08-15T13:11:54.227Z,10.10
2022-08-15T13:14:24.677Z,11.07
2022-08-15T13:17:08.144Z,12.30
2022-08-15T13:19:59.561Z,12.43
2022-08-15T13:22:47.065Z,14.07
2022-08-15T13:25:15.130Z,13.88
2022-08-15T13:27:45.634Z,14.60
2022-08-15T13:30:20.059Z,15.80
2022-08-15T13:32:51.475Z,14.40
2022-08-15T13:35:20.443Z,14.73
2022-08-15T13:37:59.920Z,16.75
2022-08-15T13:40:29.584Z,15.23
2022-08-15T13:43:03.129Z,14.43
2022-08-15T13:45:56.164Z,15.23
2022-08-15T13:48:36.711Z,15.70
2022-08-15T13:51:11.122Z,16.05
2022-08-15T13:53:55.351Z,15.63
2022-08-15T13:56:32.220Z,19.00
2022-08-15T13:59:01.047Z,20.17
2022-08-15T14:01:34.858Z,19.13
2022-08-15T14:04:10.970Z,20.23
2022-08-15T14:06:55.103Z,18.55
2022-08-15T14:10:04.489Z,18.95
2022-08-15T14:12:13.122Z,17.48
2022-08-15T14:14:47.124Z,18.23
2022-08-15T14:17:29.031Z,18.85
2022-08-15T14:20:27.159Z,20.45
2022-08-15T14:22:57.995Z,18.67
2022-08-15T14:27:08.886Z,19.63
2022-08-15T14:28:18.980Z,21.73
2022-08-15T14:37:23.057Z,21.58
2022-08-15T14:39:51.273Z,19.55
2022-08-15T14:42:21.832Z,20.67
2022-08-15T14:45:00.327Z,20.65
2022-08-15T14:47:31.027Z,21.50
2022-08-15T14:50:52.747Z,22.05
2022-08-15T14:52:53.478Z,21.90
2022-08-15T14:55:22.299Z,20.75
2022-08-15T14:57:55.400Z,19.80
2022-08-15T15:00:31.427Z,18.42
2022-08-15T15:03:00.683Z,17.60
2022-08-15T15:06:05.507Z,18.45
2022-08-15T15:08:19.832Z,18.10
2022-08-15T15:10:49.847Z,18.10
2022-08-15T15:13:17.452Z,16.70
2022-08-15T15:16:13.699Z,18.35
2022-08-15T15:18:45.797Z,18.45
2022-08-15T15:21:26.558Z,18.55
2022-08-15T15:23:54.766Z,17.00
2022-08-15T15:26:36.937Z,15.13
2022-08-15T15:29:06.798Z,8.65
2022-08-15T15:31:34.389Z,10.45
2022-08-15T15:34:15.125Z,11.70
2022-08-15T15:36:46.360Z,13.07
2022-08-15T15:39:45.778Z,14.00
2022-08-15T15:42:17.260Z,18.48
2022-08-15T15:44:46.753Z,20.63
2022-08-15T15:47:25.493Z,21.35
2022-08-15T15:49:54.950Z,28.58
2022-08-15T15:52:24.496Z,20.48
2022-08-15T15:59:00.162Z,23.20
2022-08-15T16:02:36.697Z,22.50
2022-08-15T16:04:08.718Z,23.08
2022-08-15T16:07:03.886Z,21.85
2022-08-15T16:09:24.891Z,19.85
2022-08-15T16:12:59.672Z,25.58
2022-08-15T16:14:54.682Z,19.83
2022-08-15T16:17:36.038Z,15.90
2022-08-15T16:20:41.588Z,12.77
2022-08-15T16:23:47.390Z,14.27
2022-08-15T16:26:37.209Z,12.27
2022-08-15T16:29:38.059Z,11.02
2022-08-15T16:32:20.432Z,11.90
2022-08-15T16:35:06.138Z,12.83
2022-08-15T16:37:43.058Z,14.13
2022-08-15T16:40:24.543Z,12.93
2022-08-15T16:43:18.040Z,14.15
2022-08-15T16:46:18.973Z,13.93
2022-08-15T16:49:23.620Z,15.15
2022-08-15T16:52:33.997Z,14.75
2022-08-15T16:55:05.783Z,16.58
2022-08-15T16:57:49.631Z,15.20
2022-08-15T17:00:43.091Z,17.65
2022-08-15T17:07:15.381Z,4.95
2022-08-15T17:10:02.833Z,5.00
2022-08-15T17:12:54.396Z,5.55
2022-08-15T17:15:32.751Z,4.80
2022-08-15T17:18:25.454Z,4.00
2022-08-15T17:21:11.136Z,4.10
2022-08-15T17:24:00.500Z,5.07
2022-08-15T17:26:58.605Z,5.70
2022-08-15T17:29:27.997Z,5.28
2022-08-15T17:31:57.378Z,5.80
2022-08-15T17:34:41.558Z,6.47
2022-08-15T17:39:53.175Z,5.03
2022-08-15T17:42:27.667Z,5.22
2022-08-15T17:45:15.018Z,5.72
2022-08-15T17:47:53.313Z,6.35
2022-08-15T17:53:43.653Z,6.63
2022-08-15T17:56:34.802Z,6.57
2022-08-15T17:59:43.069Z,7.05
2022-08-15T18:02:30.487Z,6.60
2022-08-15T18:05:03.008Z,8.48
2022-08-15T18:07:44.253Z,8.40
2022-08-15T18:10:43.143Z,7.57
2022-08-15T18:13:11.866Z,8.15
2022-08-15T18:16:18.757Z,7.60
2022-08-15T18:18:47.527Z,9.57
2022-08-15T18:21:33.412Z,10.95
2022-08-15T18:24:49.789Z,12.65
2022-08-15T18:26:57.790Z,12.63
2022-08-15T18:29:26.672Z,16.08
2022-08-15T18:31:53.482Z,17.15
2022-08-15T18:34:52.978Z,16.63
2022-08-15T18:37:36.276Z,11.23
2022-08-15T18:40:52.528Z,9.52
2022-08-15T18:43:20.705Z,9.85
2022-08-15T18:45:52.720Z,12.35
2022-08-15T18:48:34.141Z,17.70
2022-08-15T18:51:17.196Z,20.55
2022-08-15T18:53:56.521Z,32.55
2022-08-15T18:56:32.150Z,28.92
2022-08-15T18:59:04.789Z,16.25
2022-08-15T19:01:38.570Z,17.35
2022-08-15T19:04:49.288Z,15.65
2022-08-15T19:07:21.211Z,12.13
2022-08-15T19:09:58.406Z,11.75
2022-08-15T19:12:36.402Z,11.20
2022-08-15T19:15:15.197Z,15.25
2022-08-15T19:17:49.245Z,14.85
2022-08-15T19:20:27.415Z,13.18
2022-08-15T19:22:58.038Z,12.77
2022-08-15T19:25:40.573Z,12.45
2022-08-15T19:32:06.599Z,11.20
2022-08-15T19:35:18.767Z,11.77
2022-08-15T19:38:17.560Z,13.48
2022-08-15T19:40:55.667Z,16.05
2022-08-15T19:44:07.409Z,17.17
2022-08-15T19:47:05.852Z,26.15
2022-08-15T19:50:20.406Z,32.80
2022-08-15T19:53:17.879Z,22.35
2022-08-15T19:55:56.986Z,17.08
2022-08-15T19:58:52.613Z,14.13
2022-08-15T20:01:49.222Z,13.48
2022-08-15T20:04:49.253Z,11.00
2022-08-15T20:07:24.318Z,11.55
2022-08-15T20:14:50.915Z,12.45
2022-08-15T20:17:17.378Z,13.77
2022-08-15T20:20:01.655Z,14.32
2022-08-15T20:23:11.501Z,13.10
2022-08-15T20:25:39.049Z,13.85
2022-08-15T20:28:37.407Z,13.48
2022-08-15T20:31:14.974Z,13.90
2022-08-15T20:33:54.471Z,13.07
2022-08-15T20:36:27.600Z,14.07
2022-08-15T20:39:01.590Z,15.20
2022-08-15T20:41:37.786Z,14.27
2022-08-15T20:44:32.045Z,14.68
2022-08-15T20:47:24.060Z,15.05
2022-08-15T20:49:54.178Z,14.13
2022-08-15T20:52:40.879Z,14.35
2022-08-15T20:55:24.060Z,16.33
2022-08-15T20:57:53.137Z,16.67
2022-08-15T21:01:08.002Z,18.00
2022-08-15T21:03:16.124Z,16.17
2022-08-15T21:05:56.104Z,17.27
2022-08-15T21:09:04.814Z,16.20
2022-08-15T21:11:50.987Z,18.08
2022-08-15T21:15:08.482Z,17.13
2022-08-15T21:17:34.888Z,16.52
2022-08-15T21:20:33.327Z,16.63
2022-08-15T21:23:15.302Z,16.75
2022-08-15T21:25:44.978Z,18.73
2022-08-15T21:28:32.224Z,17.08
2022-08-15T21:31:31.989Z,22.30
2022-08-15T21:34:03.987Z,20.77
2022-08-15T21:36:35.624Z,20.23
2022-08-15T21:39:34.493Z,21.75
2022-08-15T21:42:19.552Z,19.70
2022-08-15T21:45:02.586Z,18.98
2022-08-15T21:47:47.988Z,26.23
2022-08-15T21:50:48.880Z,25.38
2022-08-15T21:53:35.104Z,20.02
2022-08-15T21:56:25.902Z,24.70
2022-08-15T22:00:19.108Z,19.27
2022-08-15T22:02:40.763Z,19.67
2022-08-15T22:05:08.641Z,19.27
2022-08-15T22:07:35.846Z,19.70
2022-08-15T22:10:19.793Z,21.53
2022-08-15T22:12:51.667Z,21.65
2022-08-15T22:15:19.959Z,20.70
2022-08-15T22:17:50.036Z,20.13
2022-08-15T22:20:32.308Z,20.17
2022-08-15T22:23:03.139Z,19.00
2022-08-15T22:25:58.886Z,19.08
2022-08-15T22:28:51.180Z,16.45
2022-08-15T22:31:44.172Z,18.80
2022-08-15T22:34:09.373Z,20.80
2022-08-15T22:36:47.031Z,19.60
2022-08-15T22:39:18.928Z,19.88
2022-08-15T22:41:53.043Z,20.45
2022-08-15T22:44:29.415Z,21.15
2022-08-15T22:46:59.559Z,20.35
2022-08-15T22:49:27.991Z,19.63
2022-08-15T22:51:59.317Z,21.42
2022-08-15T22:54:28.500Z,20.60
2022-08-15T22:57:08.252Z,18.88
2022-08-15T22:59:56.004Z,20.55
2022-08-15T23:02:30.986Z,19.90
2022-08-15T23:05:12.560Z,20.15
2022-08-15T23:07:55.747Z,18.35
2022-08-15T23:10:30.231Z,22.00
2022-08-15T23:13:02.837Z,18.58
2022-08-15T23:15:53.163Z,20.45
2022-08-15T23:18:44.853Z,20.52
2022-08-15T23:21:16.273Z,21.70
2022-08-15T23:23:53.715Z,23.25
2022-08-15T23:26:30.572Z,21.80
2022-08-15T23:29:16.485Z,22.10
2022-08-15T23:32:17.112Z,21.95
2022-08-15T23:34:55.117Z,20.05
2022-08-15T23:37:27.968Z,22.45
2022-08-15T23:40:07.661Z,22.88
2022-08-15T23:42:49.114Z,25.02
2022-08-15T23:45:24.501Z,29.02
2022-08-15T23:47:52.365Z,28.58
2022-08-15T23:50:21.409Z,28.85
2022-08-15T23:52:59.916Z,29.60
2022-08-15T23:55:39.677Z,25.13
2022-08-15T23:58:13.164Z,29.98
